sensor_id;sensor_type;location;lat;lon;timestamp;pressure;altitude;pressure_sealevel;temperature;humidity
50356;BME280;36264;51.296;-0.602;2022-11-09T00:01:19;99765.50;;;10.18;100.00
50356;BME280;36264;51.296;-0.602;2022-11-09T00:03:45;99766.59;;;10.14;100.00
50356;BME280;36264;51.296;-0.602;2022-11-09T00:06:11;99771.63;;;10.17;100.00
50356;BME280;36264;51.296;-0.602;2022-11-09T00:08:37;99764.63;;;10.19;100.00
50356;BME280;36264;51.296;-0.602;2022-11-09T00:11:08;99772.34;;;10.21;100.00
50356;BME280;36264;51.296;-0.602;2022-11-09T00:13:38;99768.03;;;10.20;100.00
50356;BME280;36264;51.296;-0.602;2022-11-09T00:16:05;99749.53;;;10.08;100.00
50356;BME280;36264;51.296;-0.602;2022-11-09T00:18:31;99768.19;;;10.16;100.00
50356;BME280;36264;51.296;-0.602;2022-11-09T00:20:58;99763.09;;;10.15;100.00
50356;BME280;36264;51.296;-0.602;2022-11-09T00:23:23;99769.25;;;10.12;100.00
50356;BME280;36264;51.296;-0.602;2022-11-09T00:25:48;99771.06;;;10.10;100.00
50356;BME280;36264;51.296;-0.602;2022-11-09T00:28:14;99763.50;;;10.06;100.00
50356;BME280;36264;51.296;-0.602;2022-11-09T00:30:40;99774.63;;;10.08;100.00
50356;BME280;36264;51.296;-0.602;2022-11-09T00:33:06;99785.09;;;10.06;100.00
50356;BME280;36264;51.296;-0.602;2022-11-09T00:35:31;99782.69;;;10.02;100.00
50356;BME280;36264;51.296;-0.602;2022-11-09T00:37:56;99783.66;;;9.99;100.00
50356;BME280;36264;51.296;-0.602;2022-11-09T00:40:22;99792.50;;;9.95;100.00
50356;BME280;36264;51.296;-0.602;2022-11-09T00:42:47;99791.06;;;9.88;100.00
50356;BME280;36264;51.296;-0.602;2022-11-09T00:45:12;99799.53;;;9.93;100.00
50356;BME280;36264;51.296;-0.602;2022-11-09T00:47:38;99806.56;;;9.89;100.00
50356;BME280;36264;51.296;-0.602;2022-11-09T00:50:04;99804.09;;;9.86;100.00
50356;BME280;36264;51.296;-0.602;2022-11-09T00:52:29;99810.22;;;9.85;100.00
50356;BME280;36264;51.296;-0.602;2022-11-09T00:54:55;99810.22;;;9.85;100.00
50356;BME280;36264;51.296;-0.602;2022-11-09T00:57:20;99805.09;;;9.84;100.00
50356;BME280;36264;51.296;-0.602;2022-11-09T00:59:46;99810.34;;;9.82;100.00
50356;BME280;36264;51.296;-0.602;2022-11-09T01:02:11;99802.69;;;9.79;100.00
50356;BME280;36264;51.296;-0.602;2022-11-09T01:04:36;99805.28;;;9.79;100.00
50356;BME280;36264;51.296;-0.602;2022-11-09T01:07:02;99807.13;;;9.77;100.00
50356;BME280;36264;51.296;-0.602;2022-11-09T01:09:27;99810.66;;;9.74;100.00
50356;BME280;36264;51.296;-0.602;2022-11-09T01:11:53;99797.13;;;9.68;100.00
50356;BME280;36264;51.296;-0.602;2022-11-09T01:14:18;99785.25;;;9.62;100.00
50356;BME280;36264;51.296;-0.602;2022-11-09T01:16:43;99797.97;;;9.68;100.00
50356;BME280;36264;51.296;-0.602;2022-11-09T01:19:10;99802.97;;;9.73;100.00
50356;BME280;36264;51.296;-0.602;2022-11-09T01:21:35;99797.91;;;9.70;100.00
50356;BME280;36264;51.296;-0.602;2022-11-09T01:24:01;99805.75;;;9.68;100.00
50356;BME280;36264;51.296;-0.602;2022-11-09T01:26:26;99808.41;;;9.67;100.00
50356;BME280;36264;51.296;-0.602;2022-11-09T01:28:52;99816.06;;;9.70;100.00
50356;BME280;36264;51.296;-0.602;2022-11-09T01:31:18;99816.06;;;9.70;100.00
50356;BME280;36264;51.296;-0.602;2022-11-09T01:33:44;99817.81;;;9.69;100.00
50356;BME280;36264;51.296;-0.602;2022-11-09T01:36:16;99810.88;;;9.70;100.00
50356;BME280;36264;51.296;-0.602;2022-11-09T01:38:42;99806.50;;;9.70;100.00
50356;BME280;36264;51.296;-0.602;2022-11-09T01:41:11;99807.44;;;9.69;100.00
50356;BME280;36264;51.296;-0.602;2022-11-09T01:43:37;99810.94;;;9.68;100.00
50356;BME280;36264;51.296;-0.602;2022-11-09T01:46:27;99811.81;;;9.67;100.00
50356;BME280;36264;51.296;-0.602;2022-11-09T01:49:00;99794.91;;;9.58;100.00
50356;BME280;36264;51.296;-0.602;2022-11-09T01:51:41;99817.69;;;9.72;100.00
50356;BME280;36264;51.296;-0.602;2022-11-09T01:54:23;99816.75;;;9.73;100.00
50356;BME280;36264;51.296;-0.602;2022-11-09T01:56:53;99819.28;;;9.75;100.00
50356;BME280;36264;51.296;-0.602;2022-11-09T01:59:25;99805.56;;;9.73;100.00
50356;BME280;36264;51.296;-0.602;2022-11-09T02:01:53;99820.91;;;9.77;100.00
50356;BME280;36264;51.296;-0.602;2022-11-09T02:04:22;99817.25;;;9.82;100.00
50356;BME280;36264;51.296;-0.602;2022-11-09T02:06:49;99809.63;;;9.78;100.00
50356;BME280;36264;51.296;-0.602;2022-11-09T02:09:20;99811.38;;;9.78;100.00
50356;BME280;36264;51.296;-0.602;2022-11-09T02:11:47;99799.84;;;9.65;100.00
50356;BME280;36264;51.296;-0.602;2022-11-09T02:14:12;99810.72;;;9.73;100.00
50356;BME280;36264;51.296;-0.602;2022-11-09T02:16:39;99821.09;;;9.73;100.00
50356;BME280;36264;51.296;-0.602;2022-11-09T02:19:05;99810.88;;;9.70;100.00
50356;BME280;36264;51.296;-0.602;2022-11-09T02:21:30;99813.00;;;9.60;100.00
50356;BME280;36264;51.296;-0.602;2022-11-09T02:23:57;99821.63;;;9.60;100.00
50356;BME280;36264;51.296;-0.602;2022-11-09T02:26:44;99825.09;;;9.59;100.00
50356;BME280;36264;51.296;-0.602;2022-11-09T02:29:14;99831.28;;;9.57;100.00
50356;BME280;36264;51.296;-0.602;2022-11-09T02:31:45;99835.56;;;9.58;100.00
50356;BME280;36264;51.296;-0.602;2022-11-09T02:34:15;99830.50;;;9.55;100.00
50356;BME280;36264;51.296;-0.602;2022-11-09T02:36:41;99828.56;;;9.60;100.00
50356;BME280;36264;51.296;-0.602;2022-11-09T02:39:08;99826.03;;;9.58;100.00
50356;BME280;36264;51.296;-0.602;2022-11-09T02:41:42;99827.69;;;9.59;100.00
50356;BME280;36264;51.296;-0.602;2022-11-09T02:44:08;99829.41;;;9.60;100.00
50356;BME280;36264;51.296;-0.602;2022-11-09T02:46:35;99833.69;;;9.61;100.00
50356;BME280;36264;51.296;-0.602;2022-11-09T02:49:02;99836.09;;;9.66;100.00
50356;BME280;36264;51.296;-0.602;2022-11-09T02:51:28;99826.69;;;9.64;100.00
50356;BME280;36264;51.296;-0.602;2022-11-09T02:53:54;99830.91;;;9.66;100.00
50356;BME280;36264;51.296;-0.602;2022-11-09T02:56:19;99828.31;;;9.66;100.00
50356;BME280;36264;51.296;-0.602;2022-11-09T02:58:44;99829.97;;;9.67;100.00
50356;BME280;36264;51.296;-0.602;2022-11-09T03:01:10;99836.03;;;9.68;100.00
50356;BME280;36264;51.296;-0.602;2022-11-09T03:03:35;99842.88;;;9.69;100.00
50356;BME280;36264;51.296;-0.602;2022-11-09T03:06:01;99836.03;;;9.68;100.00
50356;BME280;36264;51.296;-0.602;2022-11-09T03:08:26;99837.88;;;9.64;100.00
50356;BME280;36264;51.296;-0.602;2022-11-09T03:10:52;99842.22;;;9.64;100.00
50356;BME280;36264;51.296;-0.602;2022-11-09T03:13:17;99839.69;;;9.62;100.00
50356;BME280;36264;51.296;-0.602;2022-11-09T03:15:42;99834.59;;;9.60;100.00
50356;BME280;36264;51.296;-0.602;2022-11-09T03:18:08;99839.94;;;9.56;100.00
50356;BME280;36264;51.296;-0.602;2022-11-09T03:20:33;99839.38;;;9.49;100.00
50356;BME280;36264;51.296;-0.602;2022-11-09T03:22:59;99848.84;;;9.50;100.00
50356;BME280;36264;51.296;-0.602;2022-11-09T03:25:25;99841.38;;;9.42;100.00
50356;BME280;36264;51.296;-0.602;2022-11-09T03:27:58;99846.63;;;9.41;100.00
50356;BME280;36264;51.296;-0.602;2022-11-09T03:30:24;99852.75;;;9.38;100.00
50356;BME280;36264;51.296;-0.602;2022-11-09T03:32:50;99848.56;;;9.36;100.00
50356;BME280;36264;51.296;-0.602;2022-11-09T03:35:15;99841.63;;;9.36;100.00
50356;BME280;36264;51.296;-0.602;2022-11-09T03:37:40;99851.16;;;9.36;100.00
50356;BME280;36264;51.296;-0.602;2022-11-09T03:40:06;99848.63;;;9.34;100.00
50356;BME280;36264;51.296;-0.602;2022-11-09T03:42:31;99847.69;;;9.35;100.00
50356;BME280;36264;51.296;-0.602;2022-11-09T03:44:57;99850.22;;;9.37;100.00
50356;BME280;36264;51.296;-0.602;2022-11-09T03:47:22;99853.75;;;9.36;100.00
50356;BME280;36264;51.296;-0.602;2022-11-09T03:49:47;99852.22;;;9.30;100.00
50356;BME280;36264;51.296;-0.602;2022-11-09T03:52:13;99858.31;;;9.29;100.00
50356;BME280;36264;51.296;-0.602;2022-11-09T03:54:38;99857.47;;;9.29;100.00
50356;BME280;36264;51.296;-0.602;2022-11-09T03:57:04;99863.44;;;9.31;100.00
50356;BME280;36264;51.296;-0.602;2022-11-09T03:59:29;99856.47;;;9.33;100.00
50356;BME280;36264;51.296;-0.602;2022-11-09T04:01:54;99852.88;;;9.35;100.00
50356;BME280;36264;51.296;-0.602;2022-11-09T04:04:20;99846.88;;;9.35;100.00
50356;BME280;36264;51.296;-0.602;2022-11-09T04:06:45;99863.91;;;9.40;100.00
50356;BME280;36264;51.296;-0.602;2022-11-09T04:09:10;99856.94;;;9.42;100.00
50356;BME280;36264;51.296;-0.602;2022-11-09T04:11:36;99862.81;;;9.46;100.00
50356;BME280;36264;51.296;-0.602;2022-11-09T04:14:01;99859.22;;;9.50;100.00
50356;BME280;36264;51.296;-0.602;2022-11-09T04:16:26;99857.25;;;9.55;100.00
50356;BME280;36264;51.296;-0.602;2022-11-09T04:18:52;99864.00;;;9.59;100.00
50356;BME280;36264;51.296;-0.602;2022-11-09T04:21:17;99864.72;;;9.63;100.00
50356;BME280;36264;51.296;-0.602;2022-11-09T04:23:42;99873.28;;;9.65;100.00
50356;BME280;36264;51.296;-0.602;2022-11-09T04:26:08;99862.84;;;9.67;100.00
50356;BME280;36264;51.296;-0.602;2022-11-09T04:28:33;99874.00;;;9.69;100.00
50356;BME280;36264;51.296;-0.602;2022-11-09T04:31:00;99871.47;;;9.67;100.00
50356;BME280;36264;51.296;-0.602;2022-11-09T04:33:26;99892.94;;;9.71;100.00
50356;BME280;36264;51.296;-0.602;2022-11-09T04:35:51;99903.25;;;9.72;100.00
50356;BME280;36264;51.296;-0.602;2022-11-09T04:38:16;99904.03;;;9.74;100.00
50356;BME280;36264;51.296;-0.602;2022-11-09T04:40:42;99913.44;;;9.77;100.00
50356;BME280;36264;51.296;-0.602;2022-11-09T04:43:11;99903.91;;;9.77;100.00
50356;BME280;36264;51.296;-0.602;2022-11-09T04:45:37;99896.19;;;9.76;100.00
50356;BME280;36264;51.296;-0.602;2022-11-09T04:48:04;99896.25;;;9.74;100.00
50356;BME280;36264;51.296;-0.602;2022-11-09T04:50:30;99883.47;;;9.70;100.00
50356;BME280;36264;51.296;-0.602;2022-11-09T04:53:13;99877.38;;;9.71;100.00
50356;BME280;36264;51.296;-0.602;2022-11-09T04:55:40;99867.31;;;9.63;100.00
50356;BME280;36264;51.296;-0.602;2022-11-09T04:58:06;99877.63;;;9.65;100.00
50356;BME280;36264;51.296;-0.602;2022-11-09T05:00:32;99891.63;;;9.60;100.00
50356;BME280;36264;51.296;-0.602;2022-11-09T05:02:59;99883.84;;;9.60;100.00
50356;BME280;36264;51.296;-0.602;2022-11-09T05:05:25;99895.09;;;9.59;100.00
50356;BME280;36264;51.296;-0.602;2022-11-09T05:07:50;99892.72;;;9.55;100.00
50356;BME280;36264;51.296;-0.602;2022-11-09T05:10:15;99900.69;;;9.50;100.00
50356;BME280;36264;51.296;-0.602;2022-11-09T05:12:41;99907.59;;;9.50;100.00
50356;BME280;36264;51.296;-0.602;2022-11-09T05:15:06;99908.41;;;9.52;100.00
50356;BME280;36264;51.296;-0.602;2022-11-09T05:17:32;99894.03;;;9.43;100.00
50356;BME280;36264;51.296;-0.602;2022-11-09T05:19:57;99921.38;;;9.52;100.00
50356;BME280;36264;51.296;-0.602;2022-11-09T05:22:22;99921.44;;;9.50;100.00
50356;BME280;36264;51.296;-0.602;2022-11-09T05:25:07;99923.09;;;9.51;100.00
50356;BME280;36264;51.296;-0.602;2022-11-09T05:27:32;99910.44;;;9.43;100.00
50356;BME280;36264;51.296;-0.602;2022-11-09T05:29:58;99929.09;;;9.53;100.00
50356;BME280;36264;51.296;-0.602;2022-11-09T05:32:23;99922.13;;;9.54;100.00
50356;BME280;36264;51.296;-0.602;2022-11-09T05:34:48;99926.38;;;9.56;100.00
50356;BME280;36264;51.296;-0.602;2022-11-09T05:37:14;99912.72;;;9.51;100.00
50356;BME280;36264;51.296;-0.602;2022-11-09T05:39:41;99914.31;;;9.55;100.00
50356;BME280;36264;51.296;-0.602;2022-11-09T05:42:07;99910.81;;;9.56;100.00
50356;BME280;36264;51.296;-0.602;2022-11-09T05:44:34;99907.34;;;9.56;100.00
50356;BME280;36264;51.296;-0.602;2022-11-09T05:46:59;99906.81;;;9.70;100.00
50356;BME280;36264;51.296;-0.602;2022-11-09T05:49:25;99907.34;;;9.56;100.00
50356;BME280;36264;51.296;-0.602;2022-11-09T05:51:50;99904.75;;;9.56;100.00
50356;BME280;36264;51.296;-0.602;2022-11-09T05:54:15;99914.19;;;9.58;100.00
50356;BME280;36264;51.296;-0.602;2022-11-09T05:56:41;99918.66;;;9.55;100.00
50356;BME280;36264;51.296;-0.602;2022-11-09T05:59:07;99924.91;;;9.49;100.00
50356;BME280;36264;51.296;-0.602;2022-11-09T06:01:32;99932.81;;;9.46;100.00
50356;BME280;36264;51.296;-0.602;2022-11-09T06:03:58;99943.88;;;9.50;100.00
50356;BME280;36264;51.296;-0.602;2022-11-09T06:06:23;99938.94;;;9.43;100.00
50356;BME280;36264;51.296;-0.602;2022-11-09T06:08:49;99956.44;;;9.38;100.00
50356;BME280;36264;51.296;-0.602;2022-11-09T06:11:14;99948.66;;;9.38;100.00
50356;BME280;36264;51.296;-0.602;2022-11-09T06:13:40;99948.66;;;9.38;100.00
50356;BME280;36264;51.296;-0.602;2022-11-09T06:16:06;99958.66;;;9.48;100.00
50356;BME280;36264;51.296;-0.602;2022-11-09T06:18:32;99968.31;;;9.44;100.00
50356;BME280;36264;51.296;-0.602;2022-11-09T06:21:01;99971.56;;;9.49;100.00
50356;BME280;36264;51.296;-0.602;2022-11-09T06:23:28;99973.38;;;9.47;100.00
50356;BME280;36264;51.296;-0.602;2022-11-09T06:26:02;99974.09;;;9.51;100.00
50356;BME280;36264;51.296;-0.602;2022-11-09T06:28:30;99977.22;;;9.59;100.00
50356;BME280;36264;51.296;-0.602;2022-11-09T06:30:57;99982.41;;;9.59;100.00
50356;BME280;36264;51.296;-0.602;2022-11-09T06:33:23;99984.22;;;9.57;100.00
50356;BME280;36264;51.296;-0.602;2022-11-09T06:35:48;99984.84;;;9.64;100.00
50356;BME280;36264;51.296;-0.602;2022-11-09T06:38:13;99976.41;;;9.58;100.00
50356;BME280;36264;51.296;-0.602;2022-11-09T06:40:39;99992.56;;;9.65;100.00
50356;BME280;36264;51.296;-0.602;2022-11-09T06:43:05;99996.78;;;9.68;100.00
50356;BME280;36264;51.296;-0.602;2022-11-09T06:45:31;100001.84;;;9.71;100.00
50356;BME280;36264;51.296;-0.602;2022-11-09T06:47:57;100003.53;;;9.72;100.00
50356;BME280;36264;51.296;-0.602;2022-11-09T06:50:24;100015.72;;;9.70;100.00
50356;BME280;36264;51.296;-0.602;2022-11-09T06:52:58;100019.09;;;9.72;100.00
50356;BME280;36264;51.296;-0.602;2022-11-09T06:55:25;100021.63;;;9.73;100.00
50356;BME280;36264;51.296;-0.602;2022-11-09T06:57:51;100026.81;;;9.73;100.00
50356;BME280;36264;51.296;-0.602;2022-11-09T07:00:16;100025.06;;;9.74;100.00
50356;BME280;36264;51.296;-0.602;2022-11-09T07:02:42;100027.28;;;9.61;100.00
50356;BME280;36264;51.296;-0.602;2022-11-09T07:05:07;100032.78;;;9.53;100.00
50356;BME280;36264;51.296;-0.602;2022-11-09T07:07:33;100033.91;;;9.46;100.00
50356;BME280;36264;51.296;-0.602;2022-11-09T07:09:58;100032.94;;;9.49;100.00
50356;BME280;36264;51.296;-0.602;2022-11-09T07:12:24;100043.38;;;9.47;100.00
50356;BME280;36264;51.296;-0.602;2022-11-09T07:14:50;100047.75;;;9.45;100.00
50356;BME280;36264;51.296;-0.602;2022-11-09T07:17:15;100049.56;;;9.43;100.00
50356;BME280;36264;51.296;-0.602;2022-11-09T07:19:40;100048.91;;;9.38;100.00
50356;BME280;36264;51.296;-0.602;2022-11-09T07:22:06;100055.09;;;9.34;100.00
50356;BME280;36264;51.296;-0.602;2022-11-09T07:24:31;100073.13;;;9.37;100.00
50356;BME280;36264;51.296;-0.602;2022-11-09T07:26:56;100074.69;;;9.41;100.00
50356;BME280;36264;51.296;-0.602;2022-11-09T07:29:22;100071.19;;;9.42;100.00
50356;BME280;36264;51.296;-0.602;2022-11-09T07:31:47;100077.41;;;9.38;100.00
50356;BME280;36264;51.296;-0.602;2022-11-09T07:34:12;100086.94;;;9.37;100.00
50356;BME280;36264;51.296;-0.602;2022-11-09T07:36:38;100098.91;;;9.40;100.00
50356;BME280;36264;51.296;-0.602;2022-11-09T07:39:03;100087.00;;;9.36;100.00
50356;BME280;36264;51.296;-0.602;2022-11-09T07:41:29;100106.13;;;9.55;100.00
50356;BME280;36264;51.296;-0.602;2022-11-09T07:43:54;100109.47;;;9.59;100.00
50356;BME280;36264;51.296;-0.602;2022-11-09T07:46:20;100104.94;;;9.64;100.00
50356;BME280;36264;51.296;-0.602;2022-11-09T07:48:45;100120.97;;;9.75;100.00
50356;BME280;36264;51.296;-0.602;2022-11-09T07:51:10;100121.84;;;9.74;100.00
50356;BME280;36264;51.296;-0.602;2022-11-09T07:53:36;100125.06;;;9.81;100.00
50356;BME280;36264;51.296;-0.602;2022-11-09T07:56:02;100129.34;;;9.82;100.00
50356;BME280;36264;51.296;-0.602;2022-11-09T07:58:28;100129.34;;;9.82;100.00
50356;BME280;36264;51.296;-0.602;2022-11-09T08:00:54;100133.63;;;9.83;100.00
50356;BME280;36264;51.296;-0.602;2022-11-09T08:03:22;100130.97;;;9.85;100.00
50356;BME280;36264;51.296;-0.602;2022-11-09T08:05:48;100149.13;;;9.85;100.00
50356;BME280;36264;51.296;-0.602;2022-11-09T08:08:15;100144.84;;;9.84;100.00
50356;BME280;36264;51.296;-0.602;2022-11-09T08:10:41;100154.31;;;9.85;100.00
50356;BME280;36264;51.296;-0.602;2022-11-09T08:13:12;100161.38;;;9.81;100.00
50356;BME280;36264;51.296;-0.602;2022-11-09T08:15:38;100166.50;;;9.83;100.00
50356;BME280;36264;51.296;-0.602;2022-11-09T08:18:07;100179.59;;;9.79;100.00
50356;BME280;36264;51.296;-0.602;2022-11-09T08:20:33;100178.06;;;9.74;100.00
50356;BME280;36264;51.296;-0.602;2022-11-09T08:22:58;100180.13;;;9.64;100.00
50356;BME280;36264;51.296;-0.602;2022-11-09T08:25:24;100188.72;;;9.66;100.00
50356;BME280;36264;51.296;-0.602;2022-11-09T08:27:49;100200.03;;;9.64;100.00
50356;BME280;36264;51.296;-0.602;2022-11-09T08:30:17;100209.69;;;9.60;100.00
50356;BME280;36264;51.296;-0.602;2022-11-09T08:32:43;100212.34;;;9.58;100.00
50356;BME280;36264;51.296;-0.602;2022-11-09T08:35:11;100215.88;;;9.56;100.00
50356;BME280;36264;51.296;-0.602;2022-11-09T08:37:38;100225.41;;;9.55;100.00
50356;BME280;36264;51.296;-0.602;2022-11-09T08:40:04;100240.13;;;9.55;100.00
50356;BME280;36264;51.296;-0.602;2022-11-09T08:42:30;100241.84;;;9.54;100.00
50356;BME280;36264;51.296;-0.602;2022-11-09T08:44:56;100247.94;;;9.53;100.00
50356;BME280;36264;51.296;-0.602;2022-11-09T08:47:21;100257.56;;;9.50;100.00
50356;BME280;36264;51.296;-0.602;2022-11-09T08:49:46;100253.25;;;9.50;100.00
50356;BME280;36264;51.296;-0.602;2022-11-09T08:52:12;100258.31;;;9.53;100.00
50356;BME280;36264;51.296;-0.602;2022-11-09T08:54:38;100259.09;;;9.55;100.00
50356;BME280;36264;51.296;-0.602;2022-11-09T08:57:04;100269.38;;;9.58;100.00
50356;BME280;36264;51.296;-0.602;2022-11-09T08:59:29;100281.38;;;9.61;100.00
50356;BME280;36264;51.296;-0.602;2022-11-09T09:01:55;100283.03;;;9.64;100.00
50356;BME280;36264;51.296;-0.602;2022-11-09T09:04:20;100283.69;;;9.69;100.00
50356;BME280;36264;51.296;-0.602;2022-11-09T09:06:45;100289.69;;;9.71;100.00
50356;BME280;36264;51.296;-0.602;2022-11-09T09:09:11;100287.69;;;9.79;100.00
50356;BME280;36264;51.296;-0.602;2022-11-09T09:11:36;100294.44;;;9.83;100.00
50356;BME280;36264;51.296;-0.602;2022-11-09T09:14:01;100304.75;;;9.85;100.00
50356;BME280;36264;51.296;-0.602;2022-11-09T09:16:27;100302.16;;;9.85;100.00
50356;BME280;36264;51.296;-0.602;2022-11-09T09:18:53;100301.16;;;9.89;100.00
50356;BME280;36264;51.296;-0.602;2022-11-09T09:21:18;100314.13;;;9.89;100.00
50356;BME280;36264;51.296;-0.602;2022-11-09T09:23:46;100309.72;;;9.91;100.00
50356;BME280;36264;51.296;-0.602;2022-11-09T09:26:12;100316.56;;;9.93;100.00
50356;BME280;36264;51.296;-0.602;2022-11-09T09:28:37;100321.75;;;9.93;100.00
50356;BME280;36264;51.296;-0.602;2022-11-09T09:31:03;100320.88;;;9.94;100.00
50356;BME280;36264;51.296;-0.602;2022-11-09T09:33:29;100326.78;;;9.98;100.00
50356;BME280;36264;51.296;-0.602;2022-11-09T09:35:55;100331.81;;;10.03;100.00
50356;BME280;36264;51.296;-0.602;2022-11-09T09:38:21;100342.09;;;10.06;100.00
50356;BME280;36264;51.296;-0.602;2022-11-09T09:40:56;100352.31;;;10.10;100.00
50356;BME280;36264;51.296;-0.602;2022-11-09T09:43:45;100347.97;;;10.11;100.00
50356;BME280;36264;51.296;-0.602;2022-11-09T09:46:27;100344.38;;;10.15;100.00
50356;BME280;36264;51.296;-0.602;2022-11-09T09:49:27;100349.31;;;10.21;100.00
50356;BME280;36264;51.296;-0.602;2022-11-09T09:51:59;100350.19;;;10.22;100.00
50356;BME280;36264;51.296;-0.602;2022-11-09T09:54:39;100363.00;;;10.26;100.00
50356;BME280;36264;51.296;-0.602;2022-11-09T09:57:18;100365.53;;;10.28;100.00
50356;BME280;36264;51.296;-0.602;2022-11-09T09:59:50;100366.38;;;10.28;100.00
50356;BME280;36264;51.296;-0.602;2022-11-09T10:02:18;100372.28;;;10.33;100.00
50356;BME280;36264;51.296;-0.602;2022-11-09T10:04:44;100377.34;;;10.37;100.00
50356;BME280;36264;51.296;-0.602;2022-11-09T10:07:27;100381.66;;;10.38;100.00
50356;BME280;36264;51.296;-0.602;2022-11-09T10:12:40;100390.06;;;10.44;100.00
50356;BME280;36264;51.296;-0.602;2022-11-09T10:16:18;100406.41;;;10.46;100.00
50356;BME280;36264;51.296;-0.602;2022-11-09T10:26:40;100425.06;;;10.58;100.00
50356;BME280;36264;51.296;-0.602;2022-11-09T10:29:24;100432.78;;;10.59;100.00
50356;BME280;36264;51.296;-0.602;2022-11-09T10:31:56;100424.94;;;10.61;100.00
50356;BME280;36264;51.296;-0.602;2022-11-09T10:34:28;100430.78;;;10.67;100.00
50356;BME280;36264;51.296;-0.602;2022-11-09T10:37:16;100441.28;;;10.64;99.40
50356;BME280;36264;51.296;-0.602;2022-11-09T10:39:53;100447.09;;;10.71;100.00
50356;BME280;36264;51.296;-0.602;2022-11-09T10:42:20;100440.81;;;10.77;100.00
50356;BME280;36264;51.296;-0.602;2022-11-09T10:44:46;100470.31;;;10.76;100.00
50356;BME280;36264;51.296;-0.602;2022-11-09T10:47:16;100451.22;;;10.77;100.00
50356;BME280;36264;51.296;-0.602;2022-11-09T10:49:42;100468.38;;;10.81;100.00
50356;BME280;36264;51.296;-0.602;2022-11-09T10:52:32;100463.13;;;10.82;100.00
50356;BME280;36264;51.296;-0.602;2022-11-09T10:55:26;100466.63;;;10.81;97.25
50356;BME280;36264;51.296;-0.602;2022-11-09T10:57:56;100477.84;;;10.83;100.00
50356;BME280;36264;51.296;-0.602;2022-11-09T11:00:23;100472.63;;;10.83;100.00
50356;BME280;36264;51.296;-0.602;2022-11-09T11:02:50;100477.78;;;10.85;100.00
50356;BME280;36264;51.296;-0.602;2022-11-09T11:07:43;100474.94;;;10.91;100.00
50356;BME280;36264;51.296;-0.602;2022-11-09T11:10:19;100488.63;;;10.96;98.91
50356;BME280;36264;51.296;-0.602;2022-11-09T11:15:31;100466.63;;;11.05;100.00
50356;BME280;36264;51.296;-0.602;2022-11-09T11:18:03;100484.72;;;11.08;98.65
50356;BME280;36264;51.296;-0.602;2022-11-09T11:20:32;100467.19;;;11.13;100.00
50356;BME280;36264;51.296;-0.602;2022-11-09T11:28:40;100489.28;;;11.25;98.69
50356;BME280;36264;51.296;-0.602;2022-11-09T11:31:12;100497.69;;;11.32;100.00
50356;BME280;36264;51.296;-0.602;2022-11-09T11:33:38;100500.13;;;11.36;99.48
50356;BME280;36264;51.296;-0.602;2022-11-09T11:39:00;100495.34;;;11.48;98.99
50356;BME280;36264;51.296;-0.602;2022-11-09T11:44:40;100501.03;;;11.57;96.74
50356;BME280;36264;51.296;-0.602;2022-11-09T11:53:25;100515.97;;;11.74;97.05
50356;BME280;36264;51.296;-0.602;2022-11-09T12:12:57;100533.50;;;11.93;94.27
50356;BME280;36264;51.296;-0.602;2022-11-09T12:15:52;100534.81;;;12.03;89.80
50356;BME280;36264;51.296;-0.602;2022-11-09T12:21:17;100534.59;;;12.30;92.33
50356;BME280;36264;51.296;-0.602;2022-11-09T12:29:03;100535.44;;;12.51;95.56
50356;BME280;36264;51.296;-0.602;2022-11-09T12:39:30;100540.19;;;12.21;93.28
50356;BME280;36264;51.296;-0.602;2022-11-09T12:42:02;100547.34;;;12.16;94.82
50356;BME280;36264;51.296;-0.602;2022-11-09T12:44:33;100541.25;;;12.17;95.12
50356;BME280;36264;51.296;-0.602;2022-11-09T12:47:02;100554.13;;;12.20;93.74
50356;BME280;36264;51.296;-0.602;2022-11-09T12:49:40;100559.28;;;12.21;93.67
50356;BME280;36264;51.296;-0.602;2022-11-09T12:52:09;100559.19;;;12.23;95.35
50356;BME280;36264;51.296;-0.602;2022-11-09T12:54:39;100567.09;;;12.21;94.06
50356;BME280;36264;51.296;-0.602;2022-11-09T12:57:08;100582.56;;;12.24;94.72
50356;BME280;36264;51.296;-0.602;2022-11-09T13:05:28;100567.41;;;12.13;88.98
50356;BME280;36264;51.296;-0.602;2022-11-09T13:07:58;100584.88;;;12.10;90.44
50356;BME280;36264;51.296;-0.602;2022-11-09T13:10:32;100582.09;;;12.14;90.66
50356;BME280;36264;51.296;-0.602;2022-11-09T13:15:37;100579.84;;;12.48;90.79
50356;BME280;36264;51.296;-0.602;2022-11-09T13:18:05;100586.22;;;12.63;90.21
50356;BME280;36264;51.296;-0.602;2022-11-09T13:20:47;100584.06;;;12.73;89.42
50356;BME280;36264;51.296;-0.602;2022-11-09T13:23:25;100585.75;;;12.74;84.51
50356;BME280;36264;51.296;-0.602;2022-11-09T13:25:51;100594.47;;;12.73;86.23
50356;BME280;36264;51.296;-0.602;2022-11-09T13:30:52;100608.53;;;12.68;89.11
50356;BME280;36264;51.296;-0.602;2022-11-09T13:33:20;100602.69;;;12.63;89.10
50356;BME280;36264;51.296;-0.602;2022-11-09T13:38:21;100623.53;;;12.63;85.19
50356;BME280;36264;51.296;-0.602;2022-11-09T13:40:56;100614.63;;;12.69;89.54
50356;BME280;36264;51.296;-0.602;2022-11-09T13:43:41;100613.75;;;12.89;83.83
50356;BME280;36264;51.296;-0.602;2022-11-09T13:48:44;100624.47;;;13.22;88.32
50356;BME280;36264;51.296;-0.602;2022-11-09T13:51:13;100624.94;;;13.32;87.00
50356;BME280;36264;51.296;-0.602;2022-11-09T13:54:00;100625.59;;;13.37;79.16
50356;BME280;36264;51.296;-0.602;2022-11-09T14:01:52;100633.56;;;13.34;87.27
50356;BME280;36264;51.296;-0.602;2022-11-09T14:06:46;100634.47;;;13.33;86.52
50356;BME280;36264;51.296;-0.602;2022-11-09T14:09:16;100640.59;;;13.32;86.49
50356;BME280;36264;51.296;-0.602;2022-11-09T14:14:42;100640.25;;;13.19;80.59
50356;BME280;36264;51.296;-0.602;2022-11-09T14:22:33;100646.03;;;12.86;86.46
50356;BME280;36264;51.296;-0.602;2022-11-09T14:25:11;100652.28;;;12.82;86.02
50356;BME280;36264;51.296;-0.602;2022-11-09T14:27:53;100649.06;;;12.76;86.95